Time;durP1;ratioP1;P1;durP2;ratioP2;P2;SDS_P1;SDS_P2;PMS_P1;PMS_P2;Temp;Humidity;BMP_temperature;BMP_pressure;BME280_temperature;BME280_humidity;BME280_pressure;Samples;Min_cycle;Max_cycle;Signal;HPM_P1;HPM_P2
2023/11/08 00:00:05;;;;;;;9.50;5.03;;;3.40;99.90;;;;;;5064642;28;20222;-59
2023/11/08 00:02:30;;;;;;;7.17;4.80;;;3.40;99.90;;;;;;5065527;28;20437;-59
2023/11/08 00:04:56;;;;;;;6.03;4.50;;;3.30;99.90;;;;;;5062196;28;20908;-58
2023/11/08 00:07:22;;;;;;;6.80;4.37;;;3.30;99.90;;;;;;5068434;28;20189;-59
2023/11/08 00:09:48;;;;;;;7.80;5.50;;;3.20;99.90;;;;;;5068177;28;20174;-59
2023/11/08 00:12:13;;;;;;;9.93;5.30;;;3.20;99.90;;;;;;5066941;28;20748;-59
2023/11/08 00:14:39;;;;;;;8.10;4.80;;;3.10;99.90;;;;;;5067994;28;20190;-60
2023/11/08 00:17:05;;;;;;;8.00;5.77;;;3.10;99.90;;;;;;5063881;28;20291;-59
2023/11/08 00:19:31;;;;;;;8.00;4.77;;;3.10;99.90;;;;;;5064792;28;20470;-60
2023/11/08 00:21:59;;;;;;;9.30;5.40;;;3.10;99.90;;;;;;5058788;28;20186;-60
2023/11/08 00:24:29;;;;;;;12.83;6.23;;;3.10;99.90;;;;;;5056013;28;20256;-60
2023/11/08 00:26:54;;;;;;;8.67;5.17;;;3.10;99.90;;;;;;5061334;28;20966;-60
2023/11/08 00:29:20;;;;;;;8.73;5.60;;;3.10;99.90;;;;;;5064492;28;20425;-59
2023/11/08 00:31:47;;;;;;;10.07;5.90;;;3.10;99.90;;;;;;5062031;28;20177;-60
2023/11/08 00:34:15;;;;;;;11.27;6.83;;;3.10;99.90;;;;;;5059080;28;20464;-60
2023/11/08 00:36:41;;;;;;;11.47;6.93;;;3.10;99.90;;;;;;5059446;28;20910;-60
2023/11/08 00:39:07;;;;;;;12.47;7.03;;;3.00;99.90;;;;;;5060397;28;20439;-59
2023/11/08 00:41:34;;;;;;;25.87;14.10;;;3.10;99.90;;;;;;5062466;28;20170;-60
2023/11/08 00:44:00;;;;;;;23.60;11.03;;;3.00;99.90;;;;;;5065570;28;20432;-59
2023/11/08 00:46:26;;;;;;;19.73;9.33;;;3.00;99.90;;;;;;5061231;28;21079;-59
2023/11/08 00:48:52;;;;;;;19.80;7.80;;;3.00;99.90;;;;;;5059617;28;20436;-59
2023/11/08 00:51:19;;;;;;;10.77;7.30;;;3.00;99.90;;;;;;5062904;28;20206;-60
2023/11/08 00:53:45;;;;;;;10.17;6.90;;;2.90;99.90;;;;;;5067495;28;20695;-60
2023/11/08 00:56:12;;;;;;;13.70;7.17;;;2.90;99.90;;;;;;5062775;28;20422;-59
2023/11/08 00:58:38;;;;;;;9.80;6.17;;;2.90;99.90;;;;;;5066825;28;20458;-60
2023/11/08 01:01:05;;;;;;;18.10;6.57;;;2.80;99.90;;;;;;5060893;28;20461;-59
2023/11/08 01:03:32;;;;;;;14.90;6.20;;;2.80;99.90;;;;;;5065614;28;20440;-60
2023/11/08 01:05:57;;;;;;;8.47;5.87;;;2.80;99.90;;;;;;5065028;28;20516;-59
2023/11/08 01:08:23;;;;;;;14.03;5.73;;;2.80;99.90;;;;;;5064347;28;20493;-60
2023/11/08 01:10:51;;;;;;;8.80;6.40;;;2.80;99.90;;;;;;5057335;28;20182;-60
2023/11/08 01:13:17;;;;;;;9.57;5.93;;;2.90;99.90;;;;;;5059926;28;20194;-60
2023/11/08 01:15:43;;;;;;;8.13;5.47;;;2.80;99.90;;;;;;5060536;28;20821;-60
2023/11/08 01:18:10;;;;;;;10.77;5.00;;;2.90;99.90;;;;;;5060035;28;20458;-60
2023/11/08 01:20:35;;;;;;;11.17;5.73;;;2.90;99.90;;;;;;5063414;28;20171;-60
2023/11/08 01:23:02;;;;;;;9.93;6.00;;;2.90;99.90;;;;;;5061682;28;20805;-60
2023/11/08 01:25:28;;;;;;;11.03;5.43;;;2.90;99.90;;;;;;5063759;28;20416;-60
2023/11/08 01:27:54;;;;;;;7.83;5.57;;;2.90;99.90;;;;;;5062961;28;20520;-60
2023/11/08 01:30:19;;;;;;;9.27;5.87;;;2.90;99.90;;;;;;5065547;28;20645;-60
2023/11/08 01:32:45;;;;;;;6.27;4.80;;;2.90;99.90;;;;;;5065529;28;20250;-59
2023/11/08 01:35:11;;;;;;;13.10;5.93;;;2.90;99.90;;;;;;5065626;28;20239;-60
2023/11/08 01:37:39;;;;;;;9.20;5.00;;;2.90;99.90;;;;;;5064611;28;20202;-59
2023/11/08 01:40:07;;;;;;;9.10;5.20;;;2.90;99.90;;;;;;5058197;28;20456;-59
2023/11/08 01:42:33;;;;;;;7.43;5.40;;;2.80;99.90;;;;;;5059003;28;20447;-61
2023/11/08 01:45:00;;;;;;;7.40;5.60;;;2.90;99.90;;;;;;5064520;28;20420;-60
2023/11/08 01:47:26;;;;;;;9.40;6.07;;;2.90;99.90;;;;;;5067043;28;20906;-59
2023/11/08 01:49:53;;;;;;;10.60;6.00;;;2.90;99.90;;;;;;5065854;28;20419;-59
2023/11/08 01:52:20;;;;;;;13.70;5.90;;;3.00;99.90;;;;;;5067212;28;20436;-59
2023/11/08 01:54:49;;;;;;;11.47;5.70;;;3.00;99.90;;;;;;5068030;28;20513;-60
2023/11/08 01:57:15;;;;;;;9.33;5.10;;;3.00;99.90;;;;;;5066630;28;20456;-60
2023/11/08 01:59:42;;;;;;;7.07;5.30;;;3.00;99.90;;;;;;5069388;28;20404;-59
2023/11/08 02:02:08;;;;;;;8.17;4.87;;;3.00;99.90;;;;;;5067768;28;20416;-59
2023/11/08 02:04:35;;;;;;;7.53;4.93;;;3.10;99.90;;;;;;5065486;28;20451;-60
2023/11/08 02:07:01;;;;;;;7.33;4.90;;;3.00;99.90;;;;;;5070307;28;21591;-60
2023/11/08 02:09:30;;;;;;;6.53;4.47;;;3.00;99.90;;;;;;5063479;28;20970;-59
2023/11/08 02:12:00;;;;;;;6.80;4.20;;;3.00;99.90;;;;;;5062826;28;20427;-59
2023/11/08 02:14:26;;;;;;;9.80;5.37;;;3.00;99.90;;;;;;5068790;28;20447;-59
2023/11/08 02:16:51;;;;;;;8.40;5.00;;;3.00;99.90;;;;;;5067846;28;20417;-60
2023/11/08 02:19:17;;;;;;;6.67;5.63;;;3.00;99.90;;;;;;5065496;28;20428;-59
2023/11/08 02:21:42;;;;;;;7.27;5.57;;;2.90;99.90;;;;;;5065859;28;20372;-59
2023/11/08 02:24:20;;;;;;;8.70;5.40;;;2.90;99.90;;;;;;5063669;28;20251;-60
2023/11/08 02:26:47;;;;;;;11.40;5.13;;;2.90;99.90;;;;;;5064200;28;20207;-60
2023/11/08 02:29:14;;;;;;;7.93;5.17;;;2.90;99.90;;;;;;5066982;28;20891;-60
2023/11/08 02:31:40;;;;;;;8.00;4.70;;;2.90;99.90;;;;;;5065102;28;20797;-58
2023/11/08 02:34:07;;;;;;;9.80;4.80;;;2.80;99.90;;;;;;5067012;28;20471;-59
2023/11/08 02:36:33;;;;;;;9.80;4.93;;;2.80;99.90;;;;;;5067038;28;20397;-60
2023/11/08 02:38:59;;;;;;;6.53;4.63;;;2.90;99.90;;;;;;5063273;28;20487;-60
2023/11/08 02:41:25;;;;;;;6.40;5.27;;;2.90;99.90;;;;;;5067910;28;20936;-60
2023/11/08 02:43:50;;;;;;;5.83;4.50;;;2.90;99.90;;;;;;5068532;28;20440;-59
2023/11/08 02:46:16;;;;;;;6.00;4.23;;;3.00;99.90;;;;;;5068486;28;20170;-60
2023/11/08 02:48:42;;;;;;;8.47;5.50;;;3.00;99.90;;;;;;5065768;28;20260;-58
2023/11/08 02:51:08;;;;;;;8.77;5.30;;;3.00;99.90;;;;;;5066481;28;20182;-60
2023/11/08 02:53:34;;;;;;;8.77;5.60;;;3.00;99.90;;;;;;5064689;28;20479;-59
2023/11/08 02:55:59;;;;;;;10.73;5.60;;;3.00;99.90;;;;;;5063708;28;20273;-59
2023/11/08 02:58:25;;;;;;;8.10;6.03;;;3.00;99.90;;;;;;5065942;28;20208;-60
2023/11/08 03:00:54;;;;;;;9.87;6.50;;;3.00;99.90;;;;;;5065965;28;20166;-59
2023/11/08 03:03:20;;;;;;;9.20;5.63;;;2.90;99.90;;;;;;5061733;28;20293;-60
2023/11/08 03:05:45;;;;;;;10.30;6.37;;;2.90;99.90;;;;;;5067096;28;20499;-60
2023/11/08 03:08:11;;;;;;;13.23;6.20;;;2.90;99.90;;;;;;5061001;28;20727;-61
2023/11/08 03:10:37;;;;;;;11.70;6.00;;;3.00;99.90;;;;;;5061697;28;20179;-60
2023/11/08 03:13:04;;;;;;;10.53;5.67;;;3.00;99.90;;;;;;5061476;28;20207;-59
2023/11/08 03:15:31;;;;;;;9.90;5.50;;;3.00;99.90;;;;;;5061682;28;20503;-60
2023/11/08 03:17:57;;;;;;;15.40;7.00;;;3.00;99.90;;;;;;5067260;28;20452;-60
2023/11/08 03:20:23;;;;;;;11.03;5.83;;;3.00;99.90;;;;;;5065594;28;20443;-59
2023/11/08 03:22:49;;;;;;;7.33;5.50;;;3.00;99.90;;;;;;5063510;28;20769;-60
2023/11/08 03:25:16;;;;;;;10.53;5.47;;;3.00;99.90;;;;;;5062683;28;20431;-59
2023/11/08 03:27:43;;;;;;;8.40;5.20;;;3.00;99.90;;;;;;5064987;28;20171;-59
2023/11/08 03:30:12;;;;;;;8.70;5.40;;;3.00;99.90;;;;;;5064410;28;20420;-59
2023/11/08 03:32:38;;;;;;;8.20;4.80;;;3.00;99.90;;;;;;5067392;28;20870;-58
2023/11/08 03:35:05;;;;;;;11.10;5.73;;;3.00;99.90;;;;;;5061405;28;20432;-60
2023/11/08 03:37:40;;;;;;;12.60;5.63;;;3.00;99.90;;;;;;5063469;28;20468;-60
2023/11/08 03:40:11;;;;;;;9.03;5.33;;;3.10;99.90;;;;;;5064668;28;20416;-59
2023/11/08 03:42:40;;;;;;;6.90;5.10;;;3.10;99.90;;;;;;5065892;28;20444;-60
2023/11/08 03:45:06;;;;;;;8.47;5.57;;;3.10;99.90;;;;;;5065891;28;21141;-58
2023/11/08 03:47:32;;;;;;;11.63;6.13;;;3.10;99.90;;;;;;5064422;28;20428;-60
2023/11/08 03:49:58;;;;;;;10.43;5.40;;;3.20;99.90;;;;;;5067257;28;20417;-61
2023/11/08 03:52:24;;;;;;;11.30;6.07;;;3.20;99.90;;;;;;5061946;28;20424;-59
2023/11/08 03:54:50;;;;;;;11.40;5.77;;;3.20;99.90;;;;;;5063337;28;20202;-60
2023/11/08 03:57:16;;;;;;;7.17;5.37;;;3.30;99.90;;;;;;5066055;28;20324;-60
2023/11/08 03:59:42;;;;;;;11.27;5.53;;;3.30;99.90;;;;;;5065571;28;20504;-59
2023/11/08 04:02:07;;;;;;;7.87;5.03;;;3.20;99.90;;;;;;5059580;28;20173;-60
2023/11/08 04:04:33;;;;;;;7.50;5.43;;;3.20;99.90;;;;;;5066234;28;20681;-59
2023/11/08 04:06:59;;;;;;;8.40;5.30;;;3.20;99.90;;;;;;5066513;28;20189;-59
2023/11/08 04:09:24;;;;;;;7.50;4.90;;;3.20;99.90;;;;;;5066825;28;20257;-60
2023/11/08 04:11:50;;;;;;;8.97;5.13;;;3.20;99.90;;;;;;5065293;28;20178;-59
2023/11/08 04:14:15;;;;;;;9.50;5.80;;;3.20;99.90;;;;;;5065762;28;20281;-60
2023/11/08 04:16:41;;;;;;;6.40;5.10;;;3.10;99.90;;;;;;5068488;28;20286;-60
2023/11/08 04:19:07;;;;;;;7.10;5.50;;;3.10;99.90;;;;;;5058516;28;20213;-60
2023/11/08 04:21:33;;;;;;;8.10;5.20;;;3.00;99.90;;;;;;5065383;28;20268;-60
2023/11/08 04:23:58;;;;;;;9.20;5.90;;;3.00;99.90;;;;;;5061828;28;20669;-60
2023/11/08 04:26:24;;;;;;;7.10;5.63;;;2.90;99.90;;;;;;5066201;28;20520;-60
2023/11/08 04:28:51;;;;;;;9.93;5.57;;;2.90;99.90;;;;;;5063222;28;20167;-59
2023/11/08 04:31:17;;;;;;;8.70;5.53;;;2.80;99.90;;;;;;5066515;28;20178;-60
2023/11/08 04:33:43;;;;;;;12.40;5.77;;;2.80;99.90;;;;;;5057682;28;20467;-58
2023/11/08 04:36:09;;;;;;;9.30;5.50;;;2.80;99.90;;;;;;5061465;28;20444;-60
2023/11/08 04:38:35;;;;;;;8.93;5.70;;;2.80;99.90;;;;;;5066053;28;20273;-60
2023/11/08 04:41:02;;;;;;;9.37;5.90;;;2.80;99.90;;;;;;5060934;28;20560;-60
2023/11/08 04:43:29;;;;;;;8.43;5.30;;;2.80;99.90;;;;;;5061165;28;20448;-60
2023/11/08 04:45:55;;;;;;;8.40;5.40;;;2.80;99.90;;;;;;5062269;28;20421;-60
2023/11/08 04:48:20;;;;;;;9.23;5.37;;;2.80;99.90;;;;;;5067325;28;20412;-59
2023/11/08 04:50:46;;;;;;;8.80;5.60;;;2.80;99.90;;;;;;5062944;28;20174;-60
2023/11/08 04:53:13;;;;;;;8.27;5.33;;;2.80;99.90;;;;;;5061350;28;20190;-60
2023/11/08 04:55:38;;;;;;;9.53;5.70;;;2.80;99.90;;;;;;5061920;28;20432;-60
2023/11/08 04:58:04;;;;;;;9.27;5.03;;;2.80;99.90;;;;;;5063924;28;20444;-60
2023/11/08 05:00:29;;;;;;;9.30;5.60;;;2.80;99.90;;;;;;5066224;28;20290;-60
2023/11/08 05:02:55;;;;;;;8.83;5.10;;;2.80;99.90;;;;;;5061521;28;20167;-60
2023/11/08 05:05:21;;;;;;;8.33;5.43;;;2.90;99.90;;;;;;5063397;28;20174;-60
2023/11/08 05:07:47;;;;;;;12.47;5.30;;;2.90;99.90;;;;;;5061257;28;20418;-59
2023/11/08 05:10:13;;;;;;;11.90;5.70;;;2.90;99.90;;;;;;5062760;28;20649;-60
2023/11/08 05:12:39;;;;;;;10.50;6.20;;;2.90;99.90;;;;;;5057608;28;20174;-56
2023/11/08 05:15:08;;;;;;;8.33;5.30;;;2.90;99.90;;;;;;5057974;28;20503;-57
2023/11/08 05:17:36;;;;;;;10.90;5.43;;;3.00;99.90;;;;;;5063229;28;20201;-57
2023/11/08 05:20:02;;;;;;;7.90;5.27;;;3.00;99.90;;;;;;5066759;28;20465;-61
2023/11/08 05:22:27;;;;;;;11.10;6.20;;;3.00;99.90;;;;;;5067944;28;20465;-60
2023/11/08 05:24:53;;;;;;;8.27;5.30;;;3.00;99.90;;;;;;5068482;28;21510;-60
2023/11/08 05:27:19;;;;;;;8.57;5.47;;;3.00;99.90;;;;;;5067769;28;20198;-60
2023/11/08 05:29:44;;;;;;;10.47;6.43;;;3.00;99.90;;;;;;5067293;28;20179;-60
2023/11/08 05:32:10;;;;;;;11.50;6.40;;;3.00;99.90;;;;;;5068293;28;20189;-60
2023/11/08 05:34:37;;;;;;;10.90;6.57;;;3.10;99.90;;;;;;5072744;28;20293;-60
2023/11/08 05:37:04;;;;;;;9.47;5.60;;;3.10;99.90;;;;;;5065853;28;20228;-61
2023/11/08 05:39:31;;;;;;;8.50;5.40;;;3.10;99.90;;;;;;5086840;22;20518;-59
2023/11/08 05:41:57;;;;;;;10.13;5.50;;;3.10;99.90;;;;;;5060245;28;20521;-57
2023/11/08 05:44:24;;;;;;;7.03;5.60;;;3.10;99.90;;;;;;5059599;28;20523;-59
2023/11/08 05:46:50;;;;;;;9.27;4.80;;;3.10;99.90;;;;;;5065660;28;20186;-59
2023/11/08 05:49:15;;;;;;;8.13;5.83;;;3.10;99.90;;;;;;5064564;28;20458;-59
2023/11/08 05:51:41;;;;;;;11.63;6.10;;;3.00;99.90;;;;;;5065417;28;20177;-59
2023/11/08 05:54:06;;;;;;;12.93;6.60;;;3.00;99.90;;;;;;5065003;28;20171;-59
2023/11/08 05:56:33;;;;;;;11.20;6.47;;;2.90;99.90;;;;;;5066364;28;20175;-59
2023/11/08 05:58:58;;;;;;;9.03;5.97;;;2.90;99.90;;;;;;5064211;28;20214;-59
2023/11/08 06:01:24;;;;;;;10.77;6.30;;;2.90;99.90;;;;;;5065857;28;20478;-59
2023/11/08 06:03:52;;;;;;;9.43;6.50;;;2.80;99.90;;;;;;5063633;28;20182;-60
2023/11/08 06:06:18;;;;;;;19.27;7.80;;;2.80;99.90;;;;;;5069543;28;20159;-60
2023/11/08 06:08:48;;;;;;;10.57;6.50;;;2.70;99.90;;;;;;5069033;28;20419;-57
2023/11/08 06:11:16;;;;;;;8.93;5.57;;;2.70;99.90;;;;;;5066200;28;20171;-59
2023/11/08 06:13:44;;;;;;;8.83;6.20;;;2.70;99.90;;;;;;5063801;28;21157;-59
2023/11/08 06:16:11;;;;;;;9.40;5.83;;;2.70;99.90;;;;;;5062534;28;20426;-58
2023/11/08 06:18:36;;;;;;;8.40;5.40;;;2.70;99.90;;;;;;5068533;28;20452;-58
2023/11/08 06:21:02;;;;;;;11.73;5.93;;;2.60;99.90;;;;;;5067391;28;20433;-58
2023/11/08 06:23:30;;;;;;;9.13;5.70;;;2.60;99.90;;;;;;5069354;28;20178;-59
2023/11/08 06:25:56;;;;;;;10.17;6.83;;;2.60;99.90;;;;;;5063454;28;20830;-59
2023/11/08 06:28:22;;;;;;;9.43;5.87;;;2.60;99.90;;;;;;5067825;28;20415;-59
2023/11/08 06:30:47;;;;;;;10.70;6.20;;;2.60;99.90;;;;;;5062199;28;20433;-60
2023/11/08 06:33:13;;;;;;;10.17;6.80;;;2.70;99.90;;;;;;5063922;28;20602;-59
2023/11/08 06:35:41;;;;;;;9.23;6.60;;;2.60;99.90;;;;;;5068523;28;20574;-59
2023/11/08 06:38:07;;;;;;;11.97;6.53;;;2.60;99.90;;;;;;5065788;28;20186;-58
2023/11/08 06:40:32;;;;;;;9.67;6.13;;;2.60;99.90;;;;;;5062849;28;20464;-56
2023/11/08 06:42:58;;;;;;;13.57;7.33;;;2.60;99.90;;;;;;5058155;28;20423;-58
2023/11/08 06:45:24;;;;;;;11.30;6.90;;;2.60;99.90;;;;;;5059229;28;20175;-58
2023/11/08 06:47:49;;;;;;;15.23;7.23;;;2.50;99.90;;;;;;5064162;28;20181;-58
2023/11/08 06:50:15;;;;;;;13.90;7.83;;;2.50;99.90;;;;;;5067877;28;20190;-59
2023/11/08 06:52:41;;;;;;;10.93;7.00;;;2.50;99.90;;;;;;5058258;28;20179;-57
2023/11/08 06:55:07;;;;;;;12.47;6.83;;;2.50;99.90;;;;;;5067179;28;20183;-58
2023/11/08 06:57:32;;;;;;;17.77;7.77;;;2.60;99.90;;;;;;5066144;28;20190;-58
2023/11/08 06:59:59;;;;;;;11.30;7.47;;;2.60;99.90;;;;;;5068219;28;20436;-58
2023/11/08 07:02:25;;;;;;;16.43;8.00;;;2.60;99.90;;;;;;5065951;28;20293;-58
2023/11/08 07:04:50;;;;;;;10.97;7.37;;;2.60;99.90;;;;;;5067130;28;20546;-58
2023/11/08 07:07:16;;;;;;;10.00;6.73;;;2.60;99.90;;;;;;5067010;28;20512;-57
2023/11/08 07:09:42;;;;;;;9.90;6.77;;;2.60;99.90;;;;;;5066235;28;20700;-58
2023/11/08 07:12:08;;;;;;;10.87;7.50;;;2.60;99.90;;;;;;5066197;28;20181;-59
2023/11/08 07:14:34;;;;;;;12.67;8.07;;;2.60;99.90;;;;;;5067501;28;20648;-59
2023/11/08 07:17:00;;;;;;;13.80;7.77;;;2.70;99.90;;;;;;5065031;28;20416;-58
2023/11/08 07:19:27;;;;;;;15.63;8.23;;;2.70;99.90;;;;;;5061652;28;20571;-59
2023/11/08 07:21:53;;;;;;;14.13;8.00;;;2.70;99.90;;;;;;5059408;28;20179;-60
2023/11/08 07:24:19;;;;;;;19.20;8.50;;;2.70;99.90;;;;;;5066241;28;20417;-59
2023/11/08 07:26:47;;;;;;;11.17;7.37;;;2.70;99.90;;;;;;5065828;28;20228;-59
2023/11/08 07:29:12;;;;;;;37.80;8.77;;;2.80;99.90;;;;;;5067320;28;20198;-58
2023/11/08 07:31:38;;;;;;;11.67;6.80;;;2.80;99.90;;;;;;5062522;28;20520;-60
2023/11/08 07:34:07;;;;;;;31.93;7.90;;;2.90;99.90;;;;;;5067836;28;20182;-60
2023/11/08 07:36:32;;;;;;;16.60;8.00;;;2.90;99.90;;;;;;5062812;28;20174;-58
2023/11/08 07:38:59;;;;;;;40.57;8.30;;;2.90;99.90;;;;;;5065256;28;20513;-57
2023/11/08 07:41:25;;;;;;;32.53;8.07;;;3.00;99.90;;;;;;5066503;28;20181;-58
2023/11/08 07:43:51;;;;;;;50.87;8.80;;;3.00;99.90;;;;;;5065150;28;20848;-57
2023/11/08 07:46:16;;;;;;;25.97;8.47;;;3.00;99.90;;;;;;5066311;28;20195;-57
2023/11/08 07:48:42;;;;;;;24.87;7.40;;;3.00;99.90;;;;;;5062111;28;20531;-58
2023/11/08 07:51:09;;;;;;;12.80;8.13;;;3.00;99.90;;;;;;5065034;28;20240;-57
2023/11/08 07:53:35;;;;;;;10.30;6.87;;;3.10;99.90;;;;;;5066809;28;20197;-57
2023/11/08 07:56:01;;;;;;;13.10;7.73;;;3.10;99.90;;;;;;5065024;28;20961;-58
2023/11/08 07:58:27;;;;;;;10.63;7.50;;;3.20;99.90;;;;;;5065350;28;20229;-58
2023/11/08 08:00:53;;;;;;;12.90;8.03;;;3.40;99.90;;;;;;5063739;28;20551;-60
2023/11/08 08:03:19;;;;;;;11.40;7.47;;;3.50;99.90;;;;;;5066625;28;20193;-60
2023/11/08 08:05:44;;;;;;;13.00;7.60;;;3.50;99.90;;;;;;5061261;28;20201;-55
2023/11/08 08:08:13;;;;;;;13.37;7.40;;;3.60;99.90;;;;;;5061208;28;20432;-57
2023/11/08 08:10:40;;;;;;;11.93;7.67;;;3.70;99.90;;;;;;5061854;28;20208;-58
2023/11/08 08:13:06;;;;;;;13.20;6.87;;;3.70;99.90;;;;;;5061225;28;20428;-58
2023/11/08 08:15:31;;;;;;;10.10;6.63;;;3.70;99.90;;;;;;5065196;28;20440;-58
2023/11/08 08:18:00;;;;;;;10.97;6.33;;;3.80;99.90;;;;;;5063136;28;20194;-58
2023/11/08 08:20:25;;;;;;;18.83;7.53;;;3.80;99.90;;;;;;5063629;28;20190;-58
2023/11/08 08:22:55;;;;;;;10.50;6.83;;;3.80;99.90;;;;;;5064795;28;20431;-58
2023/11/08 08:25:24;;;;;;;14.27;7.37;;;3.90;99.90;;;;;;5066208;28;20712;-59
2023/11/08 08:27:50;;;;;;;10.00;6.77;;;3.90;99.90;;;;;;5064186;28;20539;-58
2023/11/08 08:30:16;;;;;;;13.90;8.33;;;4.00;99.90;;;;;;5061758;28;20991;-58
2023/11/08 08:32:45;;;;;;;14.20;7.87;;;4.10;99.90;;;;;;5065137;28;20215;-59
2023/11/08 08:35:11;;;;;;;10.83;7.60;;;4.20;99.90;;;;;;5062665;28;20190;-58
2023/11/08 08:37:37;;;;;;;13.60;10.13;;;4.30;99.90;;;;;;5060965;28;20493;-58
2023/11/08 08:40:12;;;;;;;12.47;10.03;;;4.30;99.90;;;;;;5063063;28;20476;-59
2023/11/08 08:42:41;;;;;;;15.00;8.63;;;4.50;99.90;;;;;;5061512;28;20174;-59
2023/11/08 08:45:10;;;;;;;14.83;7.10;;;4.50;99.90;;;;;;5064588;28;20406;-59
2023/11/08 08:47:40;;;;;;;9.67;6.63;;;4.60;99.90;;;;;;5059855;28;20532;-59
2023/11/08 08:50:08;;;;;;;10.67;6.80;;;4.80;99.90;;;;;;5061735;28;20471;-56
2023/11/08 08:52:34;;;;;;;9.63;7.57;;;4.90;99.90;;;;;;5066446;28;20423;-59
2023/11/08 08:55:00;;;;;;;10.60;6.60;;;5.00;99.90;;;;;;5069224;28;20511;-59
2023/11/08 08:57:26;;;;;;;11.60;7.70;;;5.10;99.90;;;;;;5069618;28;20245;-59
2023/11/08 08:59:51;;;;;;;11.57;7.90;;;5.20;99.90;;;;;;5067237;28;20201;-59
2023/11/08 09:02:17;;;;;;;12.83;7.23;;;5.20;99.90;;;;;;5064630;28;20206;-59
2023/11/08 09:04:43;;;;;;;8.47;5.10;;;5.30;99.90;;;;;;5065662;28;20198;-59
2023/11/08 09:07:08;;;;;;;13.87;5.20;;;5.30;99.90;;;;;;5068263;28;20257;-59
2023/11/08 09:09:34;;;;;;;6.67;4.83;;;5.40;99.90;;;;;;5068630;28;20327;-59
2023/11/08 09:11:59;;;;;;;8.50;4.00;;;5.60;99.90;;;;;;5065920;28;20258;-59
2023/11/08 09:14:25;;;;;;;7.90;4.37;;;5.70;99.90;;;;;;5070913;28;20178;-60
2023/11/08 09:16:51;;;;;;;8.00;4.20;;;5.90;99.90;;;;;;5066916;28;20697;-59
2023/11/08 09:19:17;;;;;;;10.63;4.90;;;6.20;99.90;;;;;;5070548;28;20684;-59
2023/11/08 09:21:43;;;;;;;6.27;5.00;;;6.40;99.90;;;;;;5067541;28;20436;-59
2023/11/08 09:24:10;;;;;;;13.03;5.80;;;6.70;99.90;;;;;;5067802;28;20325;-59
2023/11/08 09:26:36;;;;;;;5.57;4.60;;;6.90;99.90;;;;;;5065256;28;20442;-59
2023/11/08 09:29:02;;;;;;;7.53;4.40;;;7.10;99.90;;;;;;5066773;28;20510;-59
2023/11/08 09:31:28;;;;;;;8.83;2.80;;;7.30;99.90;;;;;;5067693;28;20424;-59
2023/11/08 09:33:56;;;;;;;5.67;3.40;;;7.40;99.90;;;;;;5063943;28;20668;-59
2023/11/08 09:36:22;;;;;;;4.90;3.20;;;7.40;99.90;;;;;;5070144;28;20312;-59
2023/11/08 09:38:50;;;;;;;6.43;2.70;;;7.40;99.90;;;;;;5064682;28;20464;-59
2023/11/08 09:41:17;;;;;;;4.93;2.60;;;7.40;99.90;;;;;;5065372;28;20818;-59
2023/11/08 09:43:44;;;;;;;10.83;3.17;;;7.40;99.90;;;;;;5067203;28;20417;-59
2023/11/08 09:46:10;;;;;;;17.80;4.77;;;7.40;99.90;;;;;;5069700;28;20413;-59
2023/11/08 09:48:36;;;;;;;3.53;2.43;;;7.50;99.90;;;;;;5067906;28;20942;-59
2023/11/08 09:51:02;;;;;;;8.53;2.97;;;7.60;99.90;;;;;;5061799;28;20425;-58
2023/11/08 09:53:29;;;;;;;5.13;3.20;;;7.70;99.90;;;;;;5069002;28;20178;-60
2023/11/08 09:55:58;;;;;;;4.73;2.50;;;7.90;99.90;;;;;;5066159;28;20412;-59
2023/11/08 09:58:24;;;;;;;5.77;2.73;;;8.00;99.90;;;;;;5067746;28;20557;-59
2023/11/08 10:00:56;;;;;;;4.70;2.60;;;8.20;99.90;;;;;;5065588;28;20544;-59
2023/11/08 10:03:25;;;;;;;7.00;3.00;;;8.30;99.90;;;;;;5066401;28;20410;-59
2023/11/08 10:05:51;;;;;;;6.50;3.23;;;8.50;99.90;;;;;;5064886;28;20443;-59
2023/11/08 10:08:18;;;;;;;6.10;3.43;;;8.60;99.90;;;;;;5068113;28;20420;-60
2023/11/08 10:10:48;;;;;;;5.10;2.97;;;8.80;99.90;;;;;;5066834;28;20467;-59
2023/11/08 10:13:15;;;;;;;9.07;2.73;;;8.80;99.90;;;;;;5064794;28;20468;-57
2023/11/08 10:15:41;;;;;;;5.87;2.40;;;8.80;99.90;;;;;;5068512;28;20463;-63
2023/11/08 10:18:10;;;;;;;6.57;3.23;;;8.80;99.90;;;;;;5069015;28;20472;-65
2023/11/08 10:20:37;;;;;;;4.50;2.60;;;8.80;99.90;;;;;;5067810;28;20531;-60
2023/11/08 10:23:05;;;;;;;5.60;2.73;;;9.00;99.90;;;;;;5063761;28;20437;-60
2023/11/08 10:25:31;;;;;;;4.83;2.33;;;9.10;99.90;;;;;;5064108;28;20432;-58
2023/11/08 10:28:07;;;;;;;2.90;2.13;;;9.20;99.90;;;;;;5063918;28;20481;-60
2023/11/08 10:30:39;;;;;;;22.33;2.10;;;9.30;99.90;;;;;;5062730;28;20692;-60
2023/11/08 10:33:13;;;;;;;4.97;2.30;;;9.40;99.90;;;;;;5059472;28;20429;-60
2023/11/08 10:35:43;;;;;;;9.37;2.00;;;9.50;99.90;;;;;;5062020;28;20459;-60
2023/11/08 10:38:13;;;;;;;2.57;1.60;;;9.60;99.90;;;;;;5069112;28;21098;-59
2023/11/08 10:40:43;;;;;;;5.67;1.73;;;9.70;99.90;;;;;;5060184;28;20855;-60
2023/11/08 10:43:09;;;;;;;4.37;2.63;;;9.70;99.90;;;;;;5063905;28;20847;-59
2023/11/08 10:45:35;;;;;;;10.90;2.13;;;9.60;99.90;;;;;;5072146;28;20436;-60
2023/11/08 10:48:02;;;;;;;17.13;2.80;;;9.40;99.00;;;;;;5077409;28;20235;-59
2023/11/08 10:50:28;;;;;;;4.17;1.73;;;9.30;99.90;;;;;;5067660;28;21010;-60
2023/11/08 10:52:54;;;;;;;2.23;1.87;;;9.10;99.90;;;;;;5071589;28;20487;-59
2023/11/08 10:55:25;;;;;;;6.10;1.90;;;9.00;99.90;;;;;;5070566;28;20448;-60
2023/11/08 10:57:57;;;;;;;4.00;2.17;;;8.90;99.90;;;;;;5064720;28;21269;-60
2023/11/08 11:00:26;;;;;;;2.30;2.10;;;8.80;99.90;;;;;;5061927;28;20449;-59
2023/11/08 11:02:57;;;;;;;6.30;2.07;;;8.70;99.90;;;;;;5063132;28;20429;-58
2023/11/08 11:05:23;;;;;;;3.53;1.77;;;8.70;99.90;;;;;;5069313;28;20445;-59
2023/11/08 11:07:50;;;;;;;6.23;1.87;;;8.60;99.90;;;;;;5061498;28;20430;-59
2023/11/08 11:10:17;;;;;;;2.77;1.47;;;8.60;99.90;;;;;;5068374;28;20476;-59
2023/11/08 11:13:04;;;;;;;2.20;1.23;;;8.50;99.90;;;;;;5067971;28;20980;-60
2023/11/08 11:15:35;;;;;;;6.93;2.27;;;8.50;99.90;;;;;;5061330;28;20876;-58
2023/11/08 11:18:03;;;;;;;3.57;2.20;;;8.60;99.90;;;;;;5065343;28;20513;-60
2023/11/08 11:20:34;;;;;;;1.80;1.70;;;8.70;99.90;;;;;;5067092;28;20459;-58
2023/11/08 11:23:00;;;;;;;4.00;2.03;;;8.80;99.90;;;;;;5062061;28;20471;-59
2023/11/08 11:25:44;;;;;;;2.83;1.77;;;8.90;99.90;;;;;;5066905;28;20456;-60
2023/11/08 11:28:10;;;;;;;7.20;1.53;;;9.00;99.90;;;;;;5068218;28;20232;-59
2023/11/08 11:30:36;;;;;;;4.30;1.90;;;9.10;99.90;;;;;;5063425;28;20420;-60
2023/11/08 11:33:04;;;;;;;6.93;1.70;;;9.20;99.90;;;;;;5062679;28;20673;-59
2023/11/08 11:35:30;;;;;;;2.27;2.07;;;9.30;98.90;;;;;;5062487;28;20166;-58
2023/11/08 11:38:07;;;;;;;2.53;1.60;;;9.30;98.20;;;;;;5065329;28;20521;-59
2023/11/08 11:40:45;;;;;;;5.90;2.33;;;9.40;98.80;;;;;;5067951;22;20234;-59
2023/11/08 11:43:32;;;;;;;3.63;2.20;;;9.40;98.00;;;;;;5059338;28;20421;-61
2023/11/08 11:46:03;;;;;;;2.23;2.00;;;9.30;98.30;;;;;;5057844;28;20432;-61
2023/11/08 11:48:32;;;;;;;5.47;2.03;;;9.30;98.80;;;;;;5053716;28;20947;-61
2023/11/08 11:50:58;;;;;;;4.10;2.10;;;9.20;97.50;;;;;;5069858;28;20452;-61
2023/11/08 11:53:26;;;;;;;2.50;2.00;;;9.20;99.90;;;;;;5070247;28;20436;-61
2023/11/08 11:56:06;;;;;;;2.03;1.87;;;9.20;99.90;;;;;;5069551;28;20523;-61
2023/11/08 11:58:32;;;;;;;4.33;2.10;;;9.10;99.20;;;;;;5067342;28;20452;-61
2023/11/08 12:00:58;;;;;;;3.00;2.07;;;9.10;99.20;;;;;;5071509;28;20448;-61
2023/11/08 12:03:26;;;;;;;5.40;2.53;;;9.10;97.70;;;;;;5069413;28;20948;-61
2023/11/08 12:05:55;;;;;;;4.57;1.93;;;9.00;98.00;;;;;;5069919;28;20508;-61
2023/11/08 12:08:23;;;;;;;3.30;2.00;;;9.00;99.10;;;;;;5071530;28;20531;-61
2023/11/08 12:10:49;;;;;;;4.17;2.30;;;8.90;99.90;;;;;;5074837;28;20483;-62
2023/11/08 12:13:15;;;;;;;3.27;2.13;;;8.90;99.90;;;;;;5074645;28;20453;-61
2023/11/08 12:15:40;;;;;;;4.13;2.30;;;9.00;99.90;;;;;;5083179;28;20187;-61
2023/11/08 12:18:08;;;;;;;5.90;2.00;;;9.00;99.90;;;;;;5076198;28;20263;-61
2023/11/08 12:20:41;;;;;;;2.43;2.00;;;8.90;99.90;;;;;;5075103;28;20232;-60
2023/11/08 12:23:07;;;;;;;2.77;1.97;;;8.90;99.90;;;;;;5068991;28;20459;-61
2023/11/08 12:25:33;;;;;;;2.50;1.97;;;9.00;99.90;;;;;;5071824;28;20460;-61
2023/11/08 12:28:00;;;;;;;2.13;1.93;;;9.00;99.90;;;;;;5075652;28;20659;-61
2023/11/08 12:30:26;;;;;;;2.73;2.00;;;9.00;99.90;;;;;;5076002;28;20698;-61
2023/11/08 12:32:53;;;;;;;5.83;2.40;;;9.00;99.90;;;;;;5081524;28;20408;-61
2023/11/08 12:35:19;;;;;;;2.70;2.30;;;9.00;99.90;;;;;;5068303;28;20436;-61
2023/11/08 12:37:45;;;;;;;5.47;2.40;;;9.00;99.90;;;;;;5065254;28;20461;-61
2023/11/08 12:40:22;;;;;;;4.20;2.17;;;9.00;99.70;;;;;;5072933;28;20331;-61
2023/11/08 12:42:49;;;;;;;3.20;1.80;;;9.00;99.30;;;;;;5076965;28;20213;-60
2023/11/08 12:45:30;;;;;;;3.97;1.93;;;9.10;97.50;;;;;;5072456;28;20423;-61
2023/11/08 12:48:07;;;;;;;6.87;2.37;;;9.20;95.80;;;;;;5077104;28;20419;-61
2023/11/08 12:50:34;;;;;;;3.60;2.00;;;9.20;95.20;;;;;;5065721;28;20458;-61